Riviera Beach, Maryland
Current Conditions -  °F | °C
As of 5:54 AM on Sunday 23 Nov 2014 (Local Time) from KBWI Reporting Station
Scattered Clouds Scattered Clouds  
Wind Chill: 40°   Ceiling: Unl
Heat Index: 40°   Visibility: 10mi
Dew Point: 18°   Wind: 3mph
Humidity: 41%   Direction: 200°SSW
Pressure: 30.21"   Gusts: NA
Location:  39.1259°N, 76.5123°W
Report Text: KBWI 231054Z 20003KT 10SM FEW095 SCT200 04/M08 A3021 RMK AO2 SLP229 T00441078
Loading
Personal Weather Stations






























Interactive Weather Map New forecast layout! Learn more

10-Day Weather Forecast

Advertisements
Track Severe Weather on mobile